Aérodrome :
LOGIN :

S'inscrire | Disclaimer

   EN    FR    IT 

 










Légende :    VFR   VFR Marginal   IFR   IFR Intensif   IFR Très Intensif
Visi : 
Plafond : 
>= 8 km
>= 3000ft
5 à 8 km
1000 à 3000 ft
1500m à 5 km
500 à 1000 ft
800 à 1500m
200 à 500 ft
< 800m
< 200 ft
Symboles :   Orages  Brouillard  Fortes neiges  Fortes précipitations  Vent > 20 kt
SIGMETs :   Divers  Orages  Givrage  Turbulence  Onde Orograph.  Cendres Volcan.







- Altitude de l'aérodrome : 472 ft
- Code IATA : GME


UMGG - Gomel

DERNIER METAR :
  • 220300Z 29004MPS CAVOK 14/12 Q1019 R28/D NOSIG

METARs EXPIRÉS :
  • 220200Z 30004MPS CAVOK 14/12 Q1018 R28/D NOSIG
  • 220100Z 30004MPS CAVOK 15/12 Q1018 R28/CLRD// NOSIG

TAF TAF UMGG
Valide du 22 à 00h jusqu'au 23 à 00h UTC


212300Z 2200/2224 31005MPS 9999 BKN020
TEMPO 2200/2205 2000 BR BKN005
BECMG 2205/2207 34006MPS
TEMPO 2218/2224 VRB02MPS 1200 BR BKN004
Pas de NOTAMs connus pour ce terrain.



MET'MAP, la Météo Aéronautique d'un coup d'oeil ! - Copyright ORBIFLY Décembre 2007 - Disclaimer

ORBIFLY MET'MAP TEAM :

Programmation & Développement : Alexandra Zaïnal
Conception & Développement : Baudouin d'Aumeries
Co-Programmation & Développement : Marc-Olivier Méhu
Soutien technique & logistique : Manuel Goepfert

Contact : metmap@orbifly.com




SOURCES & CREDITS :

   NOAA